sensor_id;sensor_type;location;lat;lon;timestamp;pressure;altitude;pressure_sealevel;temperature
76009;BMP280;64700;52.130;21.270;2024-01-30T00:01:32;102397.59;;;20.38
76009;BMP280;64700;52.130;21.270;2024-01-30T00:03:57;102386.31;;;20.39
76009;BMP280;64700;52.130;21.270;2024-01-30T00:06:23;102394.88;;;20.38
76009;BMP280;64700;52.130;21.270;2024-01-30T00:08:48;102389.44;;;20.38
76009;BMP280;64700;52.130;21.270;2024-01-30T00:11:14;102377.78;;;20.37
76009;BMP280;64700;52.130;21.270;2024-01-30T00:13:39;102375.06;;;20.37
76009;BMP280;64700;52.130;21.270;2024-01-30T00:16:05;102377.03;;;20.37
76009;BMP280;64700;52.130;21.270;2024-01-30T00:18:30;102376.69;;;20.35
76009;BMP280;64700;52.130;21.270;2024-01-30T00:20:55;102371.25;;;20.35
76009;BMP280;64700;52.130;21.270;2024-01-30T00:23:20;102363.09;;;20.35
76009;BMP280;64700;52.130;21.270;2024-01-30T00:25:46;102368.53;;;20.35
76009;BMP280;64700;52.130;21.270;2024-01-30T00:28:11;102355.31;;;20.33
76009;BMP280;64700;52.130;21.270;2024-01-30T00:30:36;102342.91;;;20.32
76009;BMP280;64700;52.130;21.270;2024-01-30T00:33:01;102338.69;;;20.31
76009;BMP280;64700;52.130;21.270;2024-01-30T00:35:26;102340.97;;;20.33
76009;BMP280;64700;52.130;21.270;2024-01-30T00:37:52;102340.97;;;20.33
76009;BMP280;64700;52.130;21.270;2024-01-30T00:40:17;102334.00;;;20.32
76009;BMP280;64700;52.130;21.270;2024-01-30T00:42:43;102335.19;;;20.31
76009;BMP280;64700;52.130;21.270;2024-01-30T00:45:14;102339.09;;;20.30
76009;BMP280;64700;52.130;21.270;2024-01-30T00:47:40;102334.50;;;20.27
76009;BMP280;64700;52.130;21.270;2024-01-30T00:50:05;102331.34;;;20.28
76009;BMP280;64700;52.130;21.270;2024-01-30T00:52:30;102329.84;;;20.27
76009;BMP280;64700;52.130;21.270;2024-01-30T00:54:56;102339.94;;;20.27
76009;BMP280;64700;52.130;21.270;2024-01-30T00:57:21;102328.28;;;20.26
76009;BMP280;64700;52.130;21.270;2024-01-30T00:59:46;102342.66;;;20.27
76009;BMP280;64700;52.130;21.270;2024-01-30T01:02:11;102337.63;;;20.25
76009;BMP280;64700;52.130;21.270;2024-01-30T01:04:36;102321.41;;;20.22
76009;BMP280;64700;52.130;21.270;2024-01-30T01:07:02;102334.22;;;20.21
76009;BMP280;64700;52.130;21.270;2024-01-30T01:09:27;102330.31;;;20.22
76009;BMP280;64700;52.130;21.270;2024-01-30T01:11:52;102341.97;;;20.23
76009;BMP280;64700;52.130;21.270;2024-01-30T01:14:17;102331.09;;;20.23
76009;BMP280;64700;52.130;21.270;2024-01-30T01:16:42;102334.22;;;20.21
76009;BMP280;64700;52.130;21.270;2024-01-30T01:19:08;102339.25;;;20.23
76009;BMP280;64700;52.130;21.270;2024-01-30T01:21:33;102334.63;;;20.20
76009;BMP280;64700;52.130;21.270;2024-01-30T01:23:58;102330.72;;;20.21
76009;BMP280;64700;52.130;21.270;2024-01-30T01:26:23;102331.53;;;20.18
76009;BMP280;64700;52.130;21.270;2024-01-30T01:28:48;102336.97;;;20.18
76009;BMP280;64700;52.130;21.270;2024-01-30T01:31:14;102336.19;;;20.17
76009;BMP280;64700;52.130;21.270;2024-01-30T01:33:39;102332.72;;;20.17
76009;BMP280;64700;52.130;21.270;2024-01-30T01:36:04;102336.97;;;20.18
76009;BMP280;64700;52.130;21.270;2024-01-30T01:38:30;102329.59;;;20.18
76009;BMP280;64700;52.130;21.270;2024-01-30T01:40:55;102322.63;;;20.17
76009;BMP280;64700;52.130;21.270;2024-01-30T01:43:20;102314.47;;;20.17
76009;BMP280;64700;52.130;21.270;2024-01-30T01:45:46;102318.78;;;20.15
76009;BMP280;64700;52.130;21.270;2024-01-30T01:48:11;102326.50;;;20.16
76009;BMP280;64700;52.130;21.270;2024-01-30T01:50:37;102314.88;;;20.16
76009;BMP280;64700;52.130;21.270;2024-01-30T01:53:02;102312.16;;;20.16
76009;BMP280;64700;52.130;21.270;2024-01-30T01:55:28;102319.97;;;20.14
76009;BMP280;64700;52.130;21.270;2024-01-30T01:57:54;102311.38;;;20.15
76009;BMP280;64700;52.130;21.270;2024-01-30T02:00:19;102320.31;;;20.16
76009;BMP280;64700;52.130;21.270;2024-01-30T02:02:45;102314.09;;;20.15
76009;BMP280;64700;52.130;21.270;2024-01-30T02:05:10;102316.06;;;20.15
76009;BMP280;64700;52.130;21.270;2024-01-30T02:07:36;102311.47;;;20.12
76009;BMP280;64700;52.130;21.270;2024-01-30T02:10:01;102309.50;;;20.12
76009;BMP280;64700;52.130;21.270;2024-01-30T02:12:26;102316.47;;;20.13
76009;BMP280;64700;52.130;21.270;2024-01-30T02:14:51;102316.88;;;20.12
76009;BMP280;64700;52.130;21.270;2024-01-30T02:17:16;102307.19;;;20.11
76009;BMP280;64700;52.130;21.270;2024-01-30T02:19:42;102311.88;;;20.10
76009;BMP280;64700;52.130;21.270;2024-01-30T02:22:07;102307.19;;;20.11
76009;BMP280;64700;52.130;21.270;2024-01-30T02:24:33;102311.88;;;20.10
76009;BMP280;64700;52.130;21.270;2024-01-30T02:26:58;102309.59;;;20.08
76009;BMP280;64700;52.130;21.270;2024-01-30T02:29:23;102306.88;;;20.08
76009;BMP280;64700;52.130;21.270;2024-01-30T02:31:48;102304.22;;;20.05
76009;BMP280;64700;52.130;21.270;2024-01-30T02:34:13;102308.88;;;20.04
76009;BMP280;64700;52.130;21.270;2024-01-30T02:36:41;102295.31;;;20.04
76009;BMP280;64700;52.130;21.270;2024-01-30T02:39:07;102302.69;;;20.04
76009;BMP280;64700;52.130;21.270;2024-01-30T02:41:32;102299.97;;;20.04
76009;BMP280;64700;52.130;21.270;2024-01-30T02:43:57;102300.75;;;20.04
76009;BMP280;64700;52.130;21.270;2024-01-30T02:46:22;102304.59;;;20.03
76009;BMP280;64700;52.130;21.270;2024-01-30T02:48:47;102306.53;;;20.03
76009;BMP280;64700;52.130;21.270;2024-01-30T02:51:13;102299.59;;;20.02
76009;BMP280;64700;52.130;21.270;2024-01-30T02:53:38;102306.22;;;20.01
76009;BMP280;64700;52.130;21.270;2024-01-30T02:56:03;102293.81;;;20.00
76009;BMP280;64700;52.130;21.270;2024-01-30T02:58:29;102309.69;;;20.01
76009;BMP280;64700;52.130;21.270;2024-01-30T03:00:54;102299.25;;;20.00
76009;BMP280;64700;52.130;21.270;2024-01-30T03:03:19;102309.00;;;19.97
76009;BMP280;64700;52.130;21.270;2024-01-30T03:05:44;102302.34;;;19.98
76009;BMP280;64700;52.130;21.270;2024-01-30T03:08:09;102291.94;;;19.97
76009;BMP280;64700;52.130;21.270;2024-01-30T03:10:35;102293.44;;;19.98
76009;BMP280;64700;52.130;21.270;2024-01-30T03:13:00;102292.69;;;19.97
76009;BMP280;64700;52.130;21.270;2024-01-30T03:15:25;102291.16;;;19.96
76009;BMP280;64700;52.130;21.270;2024-01-30T03:17:50;102302.78;;;19.97
76009;BMP280;64700;52.130;21.270;2024-01-30T03:20:15;102293.88;;;19.96
76009;BMP280;64700;52.130;21.270;2024-01-30T03:22:41;102299.31;;;19.96
76009;BMP280;64700;52.130;21.270;2024-01-30T03:25:06;102295.03;;;19.95
76009;BMP280;64700;52.130;21.270;2024-01-30T03:27:31;102296.22;;;19.94
76009;BMP280;64700;52.130;21.270;2024-01-30T03:29:56;102292.69;;;19.97
76009;BMP280;64700;52.130;21.270;2024-01-30T03:32:22;102293.09;;;19.96
76009;BMP280;64700;52.130;21.270;2024-01-30T03:34:47;102293.50;;;19.94
76009;BMP280;64700;52.130;21.270;2024-01-30T03:37:12;102285.38;;;19.94
76009;BMP280;64700;52.130;21.270;2024-01-30T03:39:37;102286.50;;;19.97
76009;BMP280;64700;52.130;21.270;2024-01-30T03:42:02;102287.66;;;19.96
76009;BMP280;64700;52.130;21.270;2024-01-30T03:44:28;102297.75;;;19.95
76009;BMP280;64700;52.130;21.270;2024-01-30T03:46:53;102291.56;;;19.95
76009;BMP280;64700;52.130;21.270;2024-01-30T03:49:18;102285.78;;;19.93
76009;BMP280;64700;52.130;21.270;2024-01-30T03:51:43;102293.19;;;19.92
76009;BMP280;64700;52.130;21.270;2024-01-30T03:54:09;102293.56;;;19.91
76009;BMP280;64700;52.130;21.270;2024-01-30T03:56:34;102290.50;;;19.89
76009;BMP280;64700;52.130;21.270;2024-01-30T03:59:00;102293.97;;;19.89
76009;BMP280;64700;52.130;21.270;2024-01-30T04:01:25;102296.34;;;19.87
76009;BMP280;64700;52.130;21.270;2024-01-30T04:03:50;102288.97;;;19.88
76009;BMP280;64700;52.130;21.270;2024-01-30T04:06:16;102287.41;;;19.87
76009;BMP280;64700;52.130;21.270;2024-01-30T04:08:41;102292.06;;;19.86
76009;BMP280;64700;52.130;21.270;2024-01-30T04:11:06;102292.06;;;19.86
76009;BMP280;64700;52.130;21.270;2024-01-30T04:13:32;102293.25;;;19.85
76009;BMP280;64700;52.130;21.270;2024-01-30T04:15:58;102295.19;;;19.85
76009;BMP280;64700;52.130;21.270;2024-01-30T04:18:23;102289.03;;;19.84
76009;BMP280;64700;52.130;21.270;2024-01-30T04:20:48;102291.75;;;19.84
76009;BMP280;64700;52.130;21.270;2024-01-30T04:23:14;102282.81;;;19.84
76009;BMP280;64700;52.130;21.270;2024-01-30T04:25:39;102290.19;;;19.83
76009;BMP280;64700;52.130;21.270;2024-01-30T04:28:04;102295.63;;;19.83
76009;BMP280;64700;52.130;21.270;2024-01-30T04:30:29;102287.13;;;19.81
76009;BMP280;64700;52.130;21.270;2024-01-30T04:32:54;102293.31;;;19.82
76009;BMP280;64700;52.130;21.270;2024-01-30T04:35:20;102297.97;;;19.81
76009;BMP280;64700;52.130;21.270;2024-01-30T04:37:48;102292.97;;;19.80
76009;BMP280;64700;52.130;21.270;2024-01-30T04:40:13;102292.56;;;19.81
76009;BMP280;64700;52.130;21.270;2024-01-30T04:42:38;102293.75;;;19.80
76009;BMP280;64700;52.130;21.270;2024-01-30T04:45:05;102291.03;;;19.80
76009;BMP280;64700;52.130;21.270;2024-01-30T04:47:30;102286.34;;;19.81
76009;BMP280;64700;52.130;21.270;2024-01-30T04:49:55;102286.34;;;19.81
76009;BMP280;64700;52.130;21.270;2024-01-30T04:52:20;102279.75;;;19.82
76009;BMP280;64700;52.130;21.270;2024-01-30T04:54:45;102293.31;;;19.82
76009;BMP280;64700;52.130;21.270;2024-01-30T04:57:11;102283.63;;;19.81
76009;BMP280;64700;52.130;21.270;2024-01-30T04:59:37;102288.66;;;19.82
76009;BMP280;64700;52.130;21.270;2024-01-30T05:02:02;102287.47;;;19.83
76009;BMP280;64700;52.130;21.270;2024-01-30T05:04:27;102297.16;;;19.84
76009;BMP280;64700;52.130;21.270;2024-01-30T05:06:52;102290.53;;;19.85
76009;BMP280;64700;52.130;21.270;2024-01-30T05:09:18;102292.06;;;19.86
76009;BMP280;64700;52.130;21.270;2024-01-30T05:11:43;102297.50;;;19.86
76009;BMP280;64700;52.130;21.270;2024-01-30T05:14:09;102286.25;;;19.88
76009;BMP280;64700;52.130;21.270;2024-01-30T05:16:34;102287.00;;;19.88
76009;BMP280;64700;52.130;21.270;2024-01-30T05:18:59;102282.72;;;19.91
76009;BMP280;64700;52.130;21.270;2024-01-30T05:21:25;102282.72;;;19.91
76009;BMP280;64700;52.130;21.270;2024-01-30T05:23:50;102286.97;;;19.92
76009;BMP280;64700;52.130;21.270;2024-01-30T05:26:15;102285.38;;;19.94
76009;BMP280;64700;52.130;21.270;2024-01-30T05:28:40;102286.91;;;19.95
76009;BMP280;64700;52.130;21.270;2024-01-30T05:31:06;102276.81;;;19.96
76009;BMP280;64700;52.130;21.270;2024-01-30T05:33:31;102274.44;;;19.98
76009;BMP280;64700;52.130;21.270;2024-01-30T05:35:56;102263.16;;;19.99
76009;BMP280;64700;52.130;21.270;2024-01-30T05:38:21;102266.25;;;20.01
76009;BMP280;64700;52.130;21.270;2024-01-30T05:40:46;102276.66;;;20.03
76009;BMP280;64700;52.130;21.270;2024-01-30T05:43:12;102277.44;;;20.03
76009;BMP280;64700;52.130;21.270;2024-01-30T05:45:37;102277.44;;;20.03
76009;BMP280;64700;52.130;21.270;2024-01-30T05:48:02;102277.06;;;20.05
76009;BMP280;64700;52.130;21.270;2024-01-30T05:50:27;102275.44;;;20.07
76009;BMP280;64700;52.130;21.270;2024-01-30T05:52:53;102274.59;;;20.11
76009;BMP280;64700;52.130;21.270;2024-01-30T05:55:18;102284.72;;;20.10
76009;BMP280;64700;52.130;21.270;2024-01-30T05:57:43;102274.19;;;20.12
76009;BMP280;64700;52.130;21.270;2024-01-30T06:00:08;102281.16;;;20.13
76009;BMP280;64700;52.130;21.270;2024-01-30T06:02:34;102278.03;;;20.15
76009;BMP280;64700;52.130;21.270;2024-01-30T06:04:59;102282.72;;;20.14
76009;BMP280;64700;52.130;21.270;2024-01-30T06:07:24;102283.47;;;20.15
76009;BMP280;64700;52.130;21.270;2024-01-30T06:09:49;102289.25;;;20.17
76009;BMP280;64700;52.130;21.270;2024-01-30T06:12:14;102298.16;;;20.17
76009;BMP280;64700;52.130;21.270;2024-01-30T06:14:40;102288.84;;;20.18
76009;BMP280;64700;52.130;21.270;2024-01-30T06:17:07;102287.94;;;20.25
76009;BMP280;64700;52.130;21.270;2024-01-30T06:19:32;102289.09;;;20.27
76009;BMP280;64700;52.130;21.270;2024-01-30T06:21:57;102277.53;;;20.23
76009;BMP280;64700;52.130;21.270;2024-01-30T06:24:22;102281.41;;;20.22
76009;BMP280;64700;52.130;21.270;2024-01-30T06:26:47;102290.75;;;20.21
76009;BMP280;64700;52.130;21.270;2024-01-30T06:29:13;102287.63;;;20.23
76009;BMP280;64700;52.130;21.270;2024-01-30T06:31:42;102281.75;;;20.24
76009;BMP280;64700;52.130;21.270;2024-01-30T06:34:08;102281.34;;;20.26
76009;BMP280;64700;52.130;21.270;2024-01-30T06:36:33;102279.03;;;20.24
76009;BMP280;64700;52.130;21.270;2024-01-30T06:38:59;102282.50;;;20.25
76009;BMP280;64700;52.130;21.270;2024-01-30T06:41:24;102273.19;;;20.26
76009;BMP280;64700;52.130;21.270;2024-01-30T06:43:49;102279.72;;;20.28
76009;BMP280;64700;52.130;21.270;2024-01-30T06:46:14;102279.72;;;20.28
76009;BMP280;64700;52.130;21.270;2024-01-30T06:48:40;102285.16;;;20.28
76009;BMP280;64700;52.130;21.270;2024-01-30T06:51:05;102273.09;;;20.29
76009;BMP280;64700;52.130;21.270;2024-01-30T06:53:30;102269.63;;;20.29
76009;BMP280;64700;52.130;21.270;2024-01-30T06:55:56;102272.69;;;20.31
76009;BMP280;64700;52.130;21.270;2024-01-30T06:58:21;102274.22;;;20.32
76009;BMP280;64700;52.130;21.270;2024-01-30T07:00:46;102282.81;;;20.30
76009;BMP280;64700;52.130;21.270;2024-01-30T07:03:11;102284.34;;;20.31
76009;BMP280;64700;52.130;21.270;2024-01-30T07:05:36;102282.03;;;20.30
76009;BMP280;64700;52.130;21.270;2024-01-30T07:08:02;102276.19;;;20.31
76009;BMP280;64700;52.130;21.270;2024-01-30T07:10:27;102285.84;;;20.32
76009;BMP280;64700;52.130;21.270;2024-01-30T07:12:52;102283.91;;;20.33
76009;BMP280;64700;52.130;21.270;2024-01-30T07:15:17;102287.81;;;20.32
76009;BMP280;64700;52.130;21.270;2024-01-30T07:17:45;102291.72;;;20.31
76009;BMP280;64700;52.130;21.270;2024-01-30T07:20:10;102292.81;;;20.33
76009;BMP280;64700;52.130;21.270;2024-01-30T07:22:36;102292.50;;;20.31
76009;BMP280;64700;52.130;21.270;2024-01-30T07:25:01;102293.66;;;20.30
76009;BMP280;64700;52.130;21.270;2024-01-30T07:27:26;102289.00;;;20.31
76009;BMP280;64700;52.130;21.270;2024-01-30T07:29:51;102287.47;;;20.30
76009;BMP280;64700;52.130;21.270;2024-01-30T07:32:17;102286.28;;;20.31
76009;BMP280;64700;52.130;21.270;2024-01-30T07:34:42;102287.81;;;20.32
76009;BMP280;64700;52.130;21.270;2024-01-30T07:37:07;102294.00;;;20.32
76009;BMP280;64700;52.130;21.270;2024-01-30T07:39:33;102286.63;;;20.33
76009;BMP280;64700;52.130;21.270;2024-01-30T07:41:58;102286.69;;;20.29
76009;BMP280;64700;52.130;21.270;2024-01-30T07:44:24;102292.50;;;20.31
76009;BMP280;64700;52.130;21.270;2024-01-30T07:46:49;102278.13;;;20.31
76009;BMP280;64700;52.130;21.270;2024-01-30T07:49:15;102289.78;;;20.31
76009;BMP280;64700;52.130;21.270;2024-01-30T07:51:40;102285.84;;;20.32
76009;BMP280;64700;52.130;21.270;2024-01-30T07:54:14;102288.19;;;20.34
76009;BMP280;64700;52.130;21.270;2024-01-30T07:56:39;102280.94;;;20.47
76009;BMP280;64700;52.130;21.270;2024-01-30T07:59:05;102290.69;;;20.44
76009;BMP280;64700;52.130;21.270;2024-01-30T08:01:30;102284.84;;;20.46
76009;BMP280;64700;52.130;21.270;2024-01-30T08:03:55;102285.69;;;20.43
76009;BMP280;64700;52.130;21.270;2024-01-30T08:06:20;102286.00;;;20.45
76009;BMP280;64700;52.130;21.270;2024-01-30T08:08:45;102291.44;;;20.45
76009;BMP280;64700;52.130;21.270;2024-01-30T08:11:10;102282.53;;;20.44
76009;BMP280;64700;52.130;21.270;2024-01-30T08:13:35;102286.44;;;20.43
76009;BMP280;64700;52.130;21.270;2024-01-30T08:16:01;102294.16;;;20.45
76009;BMP280;64700;52.130;21.270;2024-01-30T08:18:26;102279.41;;;20.46
76009;BMP280;64700;52.130;21.270;2024-01-30T08:20:51;102272.84;;;20.43
76009;BMP280;64700;52.130;21.270;2024-01-30T08:23:16;102276.69;;;20.46
76009;BMP280;64700;52.130;21.270;2024-01-30T08:25:41;102280.16;;;20.46
76009;BMP280;64700;52.130;21.270;2024-01-30T08:28:06;102277.84;;;20.48
76009;BMP280;64700;52.130;21.270;2024-01-30T08:30:32;102277.84;;;20.48
76009;BMP280;64700;52.130;21.270;2024-01-30T08:32:57;102263.03;;;20.49
76009;BMP280;64700;52.130;21.270;2024-01-30T08:35:22;102273.91;;;20.49
76009;BMP280;64700;52.130;21.270;2024-01-30T08:37:47;102265.00;;;20.49
76009;BMP280;64700;52.130;21.270;2024-01-30T08:40:12;102260.69;;;20.52
76009;BMP280;64700;52.130;21.270;2024-01-30T08:42:38;102268.84;;;20.52
76009;BMP280;64700;52.130;21.270;2024-01-30T08:45:04;102268.84;;;20.52
76009;BMP280;64700;52.130;21.270;2024-01-30T08:47:29;102269.16;;;20.54
76009;BMP280;64700;52.130;21.270;2024-01-30T08:49:55;102268.75;;;20.55
76009;BMP280;64700;52.130;21.270;2024-01-30T08:52:20;102271.84;;;20.57
76009;BMP280;64700;52.130;21.270;2024-01-30T08:54:45;102274.56;;;20.57
76009;BMP280;64700;52.130;21.270;2024-01-30T08:57:10;102269.94;;;20.54
76009;BMP280;64700;52.130;21.270;2024-01-30T08:59:35;102267.13;;;20.58
76009;BMP280;64700;52.130;21.270;2024-01-30T09:02:01;102264.84;;;20.56
76009;BMP280;64700;52.130;21.270;2024-01-30T09:04:26;102273.78;;;20.57
76009;BMP280;64700;52.130;21.270;2024-01-30T09:06:51;102274.88;;;20.59
76009;BMP280;64700;52.130;21.270;2024-01-30T09:09:16;102275.25;;;20.61
76009;BMP280;64700;52.130;21.270;2024-01-30T09:11:42;102262.00;;;20.63
76009;BMP280;64700;52.130;21.270;2024-01-30T09:14:08;102275.19;;;20.65
76009;BMP280;64700;52.130;21.270;2024-01-30T09:16:33;102265.81;;;20.66
76009;BMP280;64700;52.130;21.270;2024-01-30T09:18:59;102266.59;;;20.66
76009;BMP280;64700;52.130;21.270;2024-01-30T09:21:24;102260.81;;;20.64
76009;BMP280;64700;52.130;21.270;2024-01-30T09:23:49;102268.53;;;20.66
76009;BMP280;64700;52.130;21.270;2024-01-30T09:26:14;102260.06;;;20.64
76009;BMP280;64700;52.130;21.270;2024-01-30T09:28:39;102264.22;;;20.68
76009;BMP280;64700;52.130;21.270;2024-01-30T09:31:10;102267.81;;;20.65
76009;BMP280;64700;52.130;21.270;2024-01-30T09:33:35;102264.31;;;20.65
76009;BMP280;64700;52.130;21.270;2024-01-30T09:36:01;102267.38;;;20.67
76009;BMP280;64700;52.130;21.270;2024-01-30T09:38:26;102263.53;;;20.64
76009;BMP280;64700;52.130;21.270;2024-01-30T09:40:53;102261.16;;;20.66
76009;BMP280;64700;52.130;21.270;2024-01-30T09:43:20;102265.09;;;20.65
76009;BMP280;64700;52.130;21.270;2024-01-30T09:45:47;102258.44;;;20.66
76009;BMP280;64700;52.130;21.270;2024-01-30T09:48:13;102254.53;;;20.67
76009;BMP280;64700;52.130;21.270;2024-01-30T09:50:38;102249.94;;;20.64
76009;BMP280;64700;52.130;21.270;2024-01-30T09:53:03;102249.09;;;20.67
76009;BMP280;64700;52.130;21.270;2024-01-30T09:55:29;102249.09;;;20.67
76009;BMP280;64700;52.130;21.270;2024-01-30T09:57:54;102245.63;;;20.67
76009;BMP280;64700;52.130;21.270;2024-01-30T10:00:19;102246.78;;;20.66
76009;BMP280;64700;52.130;21.270;2024-01-30T10:02:45;102244.44;;;20.68
76009;BMP280;64700;52.130;21.270;2024-01-30T10:05:10;102234.31;;;20.68
76009;BMP280;64700;52.130;21.270;2024-01-30T10:07:36;102228.53;;;20.66
76009;BMP280;64700;52.130;21.270;2024-01-30T10:10:01;102229.31;;;20.67
76009;BMP280;64700;52.130;21.270;2024-01-30T10:12:28;102229.31;;;20.67
76009;BMP280;64700;52.130;21.270;2024-01-30T10:14:53;102226.25;;;20.65
76009;BMP280;64700;52.130;21.270;2024-01-30T10:17:21;102226.25;;;20.65
76009;BMP280;64700;52.130;21.270;2024-01-30T10:19:46;102222.31;;;20.66
76009;BMP280;64700;52.130;21.270;2024-01-30T10:22:12;102221.59;;;20.65
76009;BMP280;64700;52.130;21.270;2024-01-30T10:24:37;102228.53;;;20.66
76009;BMP280;64700;52.130;21.270;2024-01-30T10:27:02;102220.72;;;20.68
76009;BMP280;64700;52.130;21.270;2024-01-30T10:29:30;102213.00;;;20.67
76009;BMP280;64700;52.130;21.270;2024-01-30T10:32:03;102212.56;;;20.68
76009;BMP280;64700;52.130;21.270;2024-01-30T10:34:28;102213.44;;;20.65
76009;BMP280;64700;52.130;21.270;2024-01-30T10:36:58;102207.63;;;20.63
76009;BMP280;64700;52.130;21.270;2024-01-30T10:39:24;102199.84;;;20.65
76009;BMP280;64700;52.130;21.270;2024-01-30T10:41:51;102200.16;;;20.67
76009;BMP280;64700;52.130;21.270;2024-01-30T10:44:20;102197.13;;;20.65
76009;BMP280;64700;52.130;21.270;2024-01-30T10:46:49;102193.19;;;20.66
76009;BMP280;64700;52.130;21.270;2024-01-30T10:49:15;102188.19;;;20.65
76009;BMP280;64700;52.130;21.270;2024-01-30T10:51:41;102185.03;;;20.66
76009;BMP280;64700;52.130;21.270;2024-01-30T10:54:07;102193.63;;;20.65
76009;BMP280;64700;52.130;21.270;2024-01-30T10:56:33;102189.28;;;20.67
76009;BMP280;64700;52.130;21.270;2024-01-30T10:58:58;102177.22;;;20.68
76009;BMP280;64700;52.130;21.270;2024-01-30T11:01:24;102174.59;;;20.65
76009;BMP280;64700;52.130;21.270;2024-01-30T11:03:53;102182.66;;;20.68
76009;BMP280;64700;52.130;21.270;2024-01-30T11:06:18;102181.03;;;20.71
76009;BMP280;64700;52.130;21.270;2024-01-30T11:08:49;102178.00;;;20.69
76009;BMP280;64700;52.130;21.270;2024-01-30T11:11:24;102165.91;;;20.70
76009;BMP280;64700;52.130;21.270;2024-01-30T11:13:50;102165.22;;;20.66
76009;BMP280;64700;52.130;21.270;2024-01-30T11:16:15;102160.25;;;20.64
76009;BMP280;64700;52.130;21.270;2024-01-30T11:18:40;102160.25;;;20.64
76009;BMP280;64700;52.130;21.270;2024-01-30T11:21:05;102150.13;;;20.65
76009;BMP280;64700;52.130;21.270;2024-01-30T11:23:30;102156.66;;;20.67
76009;BMP280;64700;52.130;21.270;2024-01-30T11:25:56;102149.19;;;20.71
76009;BMP280;64700;52.130;21.270;2024-01-30T11:28:21;102149.09;;;20.75
76009;BMP280;64700;52.130;21.270;2024-01-30T11:30:46;102141.38;;;20.73
76009;BMP280;64700;52.130;21.270;2024-01-30T11:33:13;102139.50;;;20.70
76009;BMP280;64700;52.130;21.270;2024-01-30T11:35:42;102140.69;;;20.69
76009;BMP280;64700;52.130;21.270;2024-01-30T11:38:08;102139.94;;;20.69
76009;BMP280;64700;52.130;21.270;2024-01-30T11:40:34;102132.56;;;20.69
76009;BMP280;64700;52.130;21.270;2024-01-30T11:43:00;102137.22;;;20.69
76009;BMP280;64700;52.130;21.270;2024-01-30T11:45:29;102132.09;;;20.71
76009;BMP280;64700;52.130;21.270;2024-01-30T11:47:54;102128.53;;;20.74
76009;BMP280;64700;52.130;21.270;2024-01-30T11:50:19;102130.16;;;20.71
76009;BMP280;64700;52.130;21.270;2024-01-30T11:52:45;102130.16;;;20.71
76009;BMP280;64700;52.130;21.270;2024-01-30T11:55:10;102132.78;;;20.75
76009;BMP280;64700;52.130;21.270;2024-01-30T11:57:35;102118.09;;;20.72
76009;BMP280;64700;52.130;21.270;2024-01-30T12:00:02;102125.81;;;20.74
76009;BMP280;64700;52.130;21.270;2024-01-30T12:02:29;102123.53;;;20.72
76009;BMP280;64700;52.130;21.270;2024-01-30T12:04:54;102120.81;;;20.72
76009;BMP280;64700;52.130;21.270;2024-01-30T12:07:19;102114.19;;;20.73
76009;BMP280;64700;52.130;21.270;2024-01-30T12:09:54;102113.44;;;20.73
76009;BMP280;64700;52.130;21.270;2024-01-30T12:12:20;102114.69;;;20.68
76009;BMP280;64700;52.130;21.270;2024-01-30T12:14:46;102113.84;;;20.71
76009;BMP280;64700;52.130;21.270;2024-01-30T12:17:11;102109.16;;;20.72
76009;BMP280;64700;52.130;21.270;2024-01-30T12:19:47;102114.19;;;20.73
76009;BMP280;64700;52.130;21.270;2024-01-30T12:22:12;102111.81;;;20.75
76009;BMP280;64700;52.130;21.270;2024-01-30T12:24:37;102112.22;;;20.74
76009;BMP280;64700;52.130;21.270;2024-01-30T12:27:03;102109.16;;;20.72
76009;BMP280;64700;52.130;21.270;2024-01-30T12:29:31;102104.81;;;20.74
76009;BMP280;64700;52.130;21.270;2024-01-30T12:31:56;102102.88;;;20.75
76009;BMP280;64700;52.130;21.270;2024-01-30T12:34:22;102099.38;;;20.74
76009;BMP280;64700;52.130;21.270;2024-01-30T12:36:49;102095.16;;;20.73
76009;BMP280;64700;52.130;21.270;2024-01-30T12:39:15;102092.44;;;20.73
76009;BMP280;64700;52.130;21.270;2024-01-30T12:41:40;102092.84;;;20.72
76009;BMP280;64700;52.130;21.270;2024-01-30T12:44:05;102096.34;;;20.72
76009;BMP280;64700;52.130;21.270;2024-01-30T12:46:30;102102.56;;;20.73
76009;BMP280;64700;52.130;21.270;2024-01-30T12:48:56;102097.13;;;20.73
76009;BMP280;64700;52.130;21.270;2024-01-30T12:51:21;102096.66;;;20.74
76009;BMP280;64700;52.130;21.270;2024-01-30T12:53:46;102096.34;;;20.72
76009;BMP280;64700;52.130;21.270;2024-01-30T12:56:13;102086.25;;;20.73
76009;BMP280;64700;52.130;21.270;2024-01-30T12:58:39;102092.44;;;20.73
76009;BMP280;64700;52.130;21.270;2024-01-30T13:01:04;102089.38;;;20.71
76009;BMP280;64700;52.130;21.270;2024-01-30T13:03:29;102092.44;;;20.73
76009;BMP280;64700;52.130;21.270;2024-01-30T13:05:55;102084.69;;;20.72
76009;BMP280;64700;52.130;21.270;2024-01-30T13:08:20;102083.94;;;20.71
76009;BMP280;64700;52.130;21.270;2024-01-30T13:10:45;102082.41;;;20.70
76009;BMP280;64700;52.130;21.270;2024-01-30T13:13:10;102079.34;;;20.68
76009;BMP280;64700;52.130;21.270;2024-01-30T13:15:35;102079.78;;;20.67
76009;BMP280;64700;52.130;21.270;2024-01-30T13:18:00;102081.72;;;20.66
76009;BMP280;64700;52.130;21.270;2024-01-30T13:20:26;102077.50;;;20.65
76009;BMP280;64700;52.130;21.270;2024-01-30T13:22:51;102073.56;;;20.66
76009;BMP280;64700;52.130;21.270;2024-01-30T13:25:16;102077.50;;;20.65
76009;BMP280;64700;52.130;21.270;2024-01-30T13:27:42;102077.06;;;20.67
76009;BMP280;64700;52.130;21.270;2024-01-30T13:30:07;102081.31;;;20.68
76009;BMP280;64700;52.130;21.270;2024-01-30T13:32:35;102080.22;;;20.65
76009;BMP280;64700;52.130;21.270;2024-01-30T13:35:00;102080.53;;;20.67